Time;durP1;ratioP1;P1;durP2;ratioP2;P2;SDS_P1;SDS_P2;PMS_P1;PMS_P2;Temp;Humidity;BMP_temperature;BMP_pressure;BME280_temperature;BME280_humidity;BME280_pressure;Samples;Min_cycle;Max_cycle;Signal;HPM_P1;HPM_P2
2021/04/08 00:02:00;;;;;;;3.90;3.50;;;;;;;1.00;89.98;97263.03;4974017;28;20192;-75
2021/04/08 00:04:26;;;;;;;5.70;3.93;;;;;;;1.03;90.48;97257.53;4973068;28;20652;-75
2021/04/08 00:06:51;;;;;;;7.93;4.17;;;;;;;0.80;92.91;97252.91;4973765;28;20243;-76
2021/04/08 00:09:17;;;;;;;5.70;3.77;;;;;;;0.84;93.36;97256.81;4973768;28;20236;-76
2021/04/08 00:11:42;;;;;;;7.20;4.57;;;;;;;0.83;94.06;97260.38;4956071;28;20185;-76
2021/04/08 00:14:08;;;;;;;5.53;4.27;;;;;;;0.84;93.41;97256.00;4973768;28;20200;-75
2021/04/08 00:16:33;;;;;;;4.67;4.27;;;;;;;0.78;93.81;97262.56;4973066;28;20195;-75
2021/04/08 00:18:59;;;;;;;6.30;4.00;;;;;;;0.78;94.24;97265.16;4973593;28;20602;-75
2021/04/08 00:21:24;;;;;;;6.63;4.37;;;;;;;0.72;95.09;97268.38;4973298;28;20195;-74
2021/04/08 00:23:50;;;;;;;6.07;4.20;;;;;;;0.68;95.77;97254.16;4973972;28;20223;-75
2021/04/08 00:26:15;;;;;;;7.53;4.40;;;;;;;0.67;96.10;97251.75;4974224;28;20189;-76
2021/04/08 00:28:40;;;;;;;5.57;4.53;;;;;;;0.67;95.15;97251.75;4956633;28;20180;-77
2021/04/08 00:31:06;;;;;;;7.30;4.10;;;;;;;0.73;94.89;97243.34;4956468;28;20188;-76
2021/04/08 00:33:31;;;;;;;6.37;4.40;;;;;;;0.67;94.21;97251.75;4973312;28;20193;-73
2021/04/08 00:35:57;;;;;;;4.63;4.10;;;;;;;0.60;94.51;97250.72;4937783;28;20253;-77
2021/04/08 00:38:22;;;;;;;5.47;4.70;;;;;;;0.59;95.43;97251.69;4973296;28;20184;-67
2021/04/08 00:40:48;;;;;;;4.73;4.30;;;;;;;0.57;95.59;97244.09;4973854;28;20195;-77
2021/04/08 00:43:13;;;;;;;6.53;4.80;;;;;;;0.65;95.73;97240.75;4956633;28;20193;-78
2021/04/08 00:45:39;;;;;;;7.87;4.67;;;;;;;0.66;95.13;97242.38;4973024;28;20243;-78
2021/04/08 00:48:05;;;;;;;5.93;4.10;;;;;;;0.68;95.59;97243.00;4974133;28;20197;-77
2021/04/08 00:50:30;;;;;;;5.40;4.90;;;;;;;0.69;95.46;97247.22;4972069;28;20709;-77
2021/04/08 00:53:02;;;;;;;5.40;4.50;;;;;;;0.66;94.46;97250.13;4973450;28;20185;-77
2021/04/08 00:55:32;;;;;;;5.70;4.67;;;;;;;0.66;94.45;97248.34;4973462;28;20184;-78
2021/04/08 00:58:01;;;;;;;7.17;4.30;;;;;;;0.70;93.95;97254.81;4974801;28;20192;-77
2021/04/08 01:00:27;;;;;;;6.97;4.20;;;;;;;0.71;93.91;97253.03;4974469;28;20195;-77
2021/04/08 01:02:52;;;;;;;5.47;4.30;;;;;;;0.70;93.94;97262.53;4974701;28;20661;-79
2021/04/08 01:05:18;;;;;;;7.83;4.60;;;;;;;0.78;92.42;97257.41;4976192;28;20185;-79
2021/04/08 01:07:43;;;;;;;4.97;4.30;;;;;;;0.73;93.28;97264.81;4975885;28;20195;-80
2021/04/08 01:10:11;;;;;;;7.27;4.40;;;;;;;0.86;91.80;97269.56;4974799;28;20189;-79
2021/04/08 01:12:36;;;;;;;5.30;4.20;;;;;;;0.80;91.80;97278.72;4973257;28;20188;-78
2021/04/08 01:15:05;;;;;;;4.77;4.23;;;;;;;0.86;91.10;97277.28;4973171;28;20573;-80
2021/04/08 01:17:42;;;;;;;6.93;4.17;;;;;;;0.86;91.07;97279.88;4955941;28;20180;-77
2021/04/08 01:20:44;;;;;;;6.53;4.23;;;;;;;0.93;91.27;97286.06;4973756;28;20181;-77
2021/04/08 01:23:28;;;;;;;5.77;4.17;;;;;;;0.86;91.78;97276.47;4974037;28;20180;-77
2021/04/08 01:26:05;;;;;;;4.67;4.07;;;;;;;0.87;91.46;97278.91;4973193;28;20601;-75
2021/04/08 01:28:33;;;;;;;6.33;4.97;;;;;;;0.87;90.97;97281.50;4967682;28;20603;-78
2021/04/08 01:31:03;;;;;;;5.40;4.53;;;;;;;0.82;91.30;97281.16;4973547;28;20195;-80
2021/04/08 01:33:32;;;;;;;7.90;4.90;;;;;;;0.89;90.75;97276.19;4972996;28;20560;-79
2021/04/08 01:36:04;;;;;;;4.80;4.03;;;;;;;1.07;89.87;97284.66;4974736;28;20196;-80
2021/04/08 01:38:35;;;;;;;7.03;4.80;;;;;;;0.91;89.67;97279.41;4957547;28;20268;-80
2021/04/08 01:41:01;;;;;;;6.00;5.00;;;;;;;0.88;89.74;97290.06;4975027;28;20239;-79
2021/04/08 01:43:32;;;;;;;7.73;4.80;;;;;;;0.91;89.62;97289.72;4974103;28;20315;-78
2021/04/08 01:45:58;;;;;;;6.37;5.20;;;;;;;1.07;89.80;97297.53;4977859;28;20199;-79
2021/04/08 01:48:28;;;;;;;6.33;4.57;;;;;;;1.05;88.85;97295.16;4977022;28;20327;-67
2021/04/08 01:50:56;;;;;;;5.70;4.90;;;;;;;1.04;88.88;97298.69;4958612;28;20243;-74
2021/04/08 01:53:23;;;;;;;11.20;5.40;;;;;;;1.16;88.64;97306.97;4959789;28;20204;-65
2021/04/08 01:55:51;;;;;;;7.90;5.27;;;;;;;1.12;88.34;97303.88;4977064;28;20184;-78
2021/04/08 01:58:18;;;;;;;5.83;3.70;;;;;;;1.01;86.37;97300.75;4976962;28;20239;-78
2021/04/08 02:00:45;;;;;;;4.97;4.20;;;;;;;1.05;86.28;97304.66;4975916;28;20731;-72
2021/04/08 02:03:13;;;;;;;7.10;4.30;;;;;;;1.09;86.46;97311.13;4977005;28;20251;-78
2021/04/08 02:05:40;;;;;;;5.20;4.60;;;;;;;1.12;87.10;97309.03;4976658;28;20173;-78
2021/04/08 02:08:07;;;;;;;5.57;4.50;;;;;;;1.13;86.58;97317.59;4976639;28;20320;-78
2021/04/08 02:10:34;;;;;;;5.03;4.23;;;;;;;1.01;85.60;97317.03;4974408;28;20684;-76
2021/04/08 02:13:00;;;;;;;5.00;4.00;;;;;;;1.01;85.09;97321.38;4975740;28;20189;-76
2021/04/08 02:15:27;;;;;;;4.13;3.73;;;;;;;0.87;85.77;97319.38;4975417;28;20263;-78
2021/04/08 02:17:55;;;;;;;4.30;3.23;;;;;;;0.94;85.01;97317.81;4959234;28;20180;-77
2021/04/08 02:20:24;;;;;;;5.17;3.57;;;;;;;0.91;85.19;97318.13;4967504;28;20208;-67
2021/04/08 02:22:54;;;;;;;6.43;3.30;;;;;;;0.88;84.78;97321.00;4959834;28;20232;-77
2021/04/08 02:25:22;;;;;;;5.70;3.60;;;;;;;0.96;85.23;97315.88;4962008;28;20185;-68
2021/04/08 02:27:49;;;;;;;6.20;3.60;;;;;;;0.92;85.67;97312.81;4976390;28;20238;-77
2021/04/08 02:30:20;;;;;;;4.43;2.97;;;;;;;0.90;85.97;97313.91;4959864;28;20279;-78
2021/04/08 02:32:46;;;;;;;6.13;3.37;;;;;;;0.84;86.27;97323.06;4975975;28;20272;-78
2021/04/08 02:35:14;;;;;;;4.80;3.20;;;;;;;0.94;85.41;97321.22;4976419;28;20204;-77
2021/04/08 02:37:40;;;;;;;6.00;3.33;;;;;;;0.95;86.05;97319.44;4958402;28;20372;-76
2021/04/08 02:40:08;;;;;;;5.07;3.70;;;;;;;0.95;84.92;97322.03;4976302;28;20667;-79
2021/04/08 02:42:34;;;;;;;3.33;3.03;;;;;;;0.96;84.86;97331.38;4975473;28;20228;-79
2021/04/08 02:45:00;;;;;;;5.73;3.23;;;;;;;1.00;84.34;97330.13;4976260;28;20224;-77
2021/04/08 02:47:25;;;;;;;3.13;2.80;;;;;;;0.94;84.34;97330.72;4958100;28;20187;-77
2021/04/08 02:49:51;;;;;;;4.83;3.20;;;;;;;0.94;84.59;97328.97;4976453;28;20228;-77
2021/04/08 02:52:21;;;;;;;6.10;3.33;;;;;;;1.00;84.66;97332.69;4976132;28;20252;-78
2021/04/08 02:54:53;;;;;;;6.27;2.83;;;;;;;1.06;84.29;97329.50;4976330;28;20200;-79
2021/04/08 02:57:26;;;;;;;3.40;3.00;;;;;;;0.98;85.08;97327.69;4976892;28;20187;-80
2021/04/08 02:59:54;;;;;;;3.73;3.00;;;;;;;1.01;84.29;97331.72;4977058;28;20193;-78
2021/04/08 03:02:26;;;;;;;4.40;3.10;;;;;;;1.04;83.59;97336.59;4976599;28;20189;-66
2021/04/08 03:04:54;;;;;;;4.23;3.10;;;;;;;1.15;83.18;97337.13;4976114;28;20177;-69
2021/04/08 03:07:29;;;;;;;3.10;2.80;;;;;;;1.11;82.90;97343.56;4954091;28;20192;-67
2021/04/08 03:09:56;;;;;;;4.07;2.80;;;;;;;1.15;82.58;97355.19;4958496;28;20180;-78
2021/04/08 03:12:25;;;;;;;4.63;2.90;;;;;;;1.17;81.52;97355.84;4975941;28;20188;-68
2021/04/08 03:14:53;;;;;;;4.10;2.30;;;;;;;1.23;81.06;97359.56;4959714;28;20299;-77
2021/04/08 03:17:24;;;;;;;4.00;2.60;;;;;;;1.18;81.69;97359.22;4976822;28;20181;-79
2021/04/08 03:19:52;;;;;;;3.60;2.53;;;;;;;1.23;80.91;97355.22;4976692;28;20193;-74
2021/04/08 03:22:21;;;;;;;3.63;2.50;;;;;;;1.22;81.67;97360.56;4958544;28;20185;-79
2021/04/08 03:24:50;;;;;;;4.17;2.80;;;;;;;1.20;82.01;97359.91;4958591;28;20193;-78
2021/04/08 03:27:17;;;;;;;4.53;2.70;;;;;;;1.13;81.76;97364.03;4975567;28;20188;-78
2021/04/08 03:29:43;;;;;;;2.83;2.63;;;;;;;1.17;81.68;97355.06;4975421;28;20870;-79
2021/04/08 03:32:09;;;;;;;3.03;2.47;;;;;;;1.18;81.18;97366.97;4976044;28;20252;-79
2021/04/08 03:34:37;;;;;;;4.50;2.77;;;;;;;1.06;82.01;97363.84;4974932;28;20336;-77
2021/04/08 03:37:04;;;;;;;3.57;2.77;;;;;;;1.11;82.65;97364.22;4975324;28;20204;-78
2021/04/08 03:39:30;;;;;;;4.03;2.70;;;;;;;1.13;83.04;97369.22;4957929;28;20177;-78
2021/04/08 03:41:56;;;;;;;3.37;2.90;;;;;;;1.15;83.06;97372.47;4975524;28;20199;-78
2021/04/08 03:44:22;;;;;;;4.10;2.33;;;;;;;1.10;83.16;97367.75;4975420;28;20642;-65
2021/04/08 03:46:48;;;;;;;3.63;2.53;;;;;;;1.09;83.04;97378.22;4957719;28;20324;-78
2021/04/08 03:49:15;;;;;;;2.80;2.50;;;;;;;1.17;82.32;97381.66;4975261;28;20292;-77
2021/04/08 03:51:42;;;;;;;3.97;2.70;;;;;;;1.12;82.77;97380.50;4974714;28;20176;-78
2021/04/08 03:54:14;;;;;;;3.37;2.60;;;;;;;1.18;83.45;97383.28;4974836;28;20560;-78
2021/04/08 03:56:43;;;;;;;2.60;2.40;;;;;;;1.14;83.39;97383.75;4958295;28;20173;-79
2021/04/08 03:59:09;;;;;;;3.57;2.37;;;;;;;1.28;82.04;97383.19;4975307;28;20195;-78
2021/04/08 04:01:37;;;;;;;3.93;2.70;;;;;;;1.19;82.42;97384.09;4973934;28;20262;-79
2021/04/08 04:04:04;;;;;;;7.70;2.77;;;;;;;1.11;82.81;97382.28;4975458;28;20192;-78
2021/04/08 04:06:31;;;;;;;4.17;2.97;;;;;;;1.07;84.32;97383.53;4974049;28;20291;-73
2021/04/08 04:08:57;;;;;;;3.10;2.80;;;;;;;0.94;85.19;97385.72;4957666;28;20193;-78
2021/04/08 04:11:23;;;;;;;4.17;2.73;;;;;;;1.02;84.65;97388.34;4975140;28;20546;-66
2021/04/08 04:13:50;;;;;;;3.50;2.70;;;;;;;1.00;85.00;97384.31;4974318;28;20687;-79
2021/04/08 04:16:17;;;;;;;6.20;2.70;;;;;;;0.96;85.80;97395.88;4975313;28;20547;-80
2021/04/08 04:18:42;;;;;;;3.20;2.60;;;;;;;1.01;84.91;97398.81;4974022;28;20188;-79
2021/04/08 04:21:09;;;;;;;5.10;2.60;;;;;;;1.15;84.63;97396.50;4957466;28;20200;-79
2021/04/08 04:23:35;;;;;;;4.83;2.70;;;;;;;1.06;84.67;97397.38;4974876;28;20658;-80
2021/04/08 04:26:00;;;;;;;4.60;2.60;;;;;;;1.08;84.58;97394.66;4974989;28;20185;-80
2021/04/08 04:28:25;;;;;;;6.00;2.63;;;;;;;0.94;86.24;97401.22;4974566;28;20637;-66
2021/04/08 04:30:51;;;;;;;3.20;2.67;;;;;;;1.06;85.75;97405.13;4957429;28;20209;-76
2021/04/08 04:33:16;;;;;;;3.07;2.77;;;;;;;1.03;86.16;97405.44;4957593;28;20304;-80
2021/04/08 04:35:42;;;;;;;3.13;2.83;;;;;;;1.03;86.44;97407.22;4956778;28;20181;-79
2021/04/08 04:38:07;;;;;;;5.10;2.47;;;;;;;1.00;85.17;97410.13;4957912;28;20327;-79
2021/04/08 04:40:33;;;;;;;2.70;2.50;;;;;;;0.94;85.47;97413.31;4957181;28;20271;-80
2021/04/08 04:42:58;;;;;;;4.40;2.47;;;;;;;0.90;86.31;97410.19;4957029;28;20537;-80
2021/04/08 04:45:23;;;;;;;4.73;2.47;;;;;;;1.06;84.98;97417.25;4974454;28;20189;-67
2021/04/08 04:47:49;;;;;;;3.47;2.80;;;;;;;0.96;86.27;97417.34;4974870;28;20517;-78
2021/04/08 04:50:15;;;;;;;3.13;2.67;;;;;;;0.97;84.78;97418.97;4973293;28;20265;-80
2021/04/08 04:52:41;;;;;;;5.87;2.90;;;;;;;1.00;85.18;97423.03;4973980;28;20271;-80
2021/04/08 04:55:08;;;;;;;4.17;3.33;;;;;;;1.05;85.31;97426.78;4974552;28;20606;-80
2021/04/08 04:57:34;;;;;;;7.60;3.17;;;;;;;1.07;84.46;97424.81;4973574;28;20677;-81
2021/04/08 04:59:59;;;;;;;3.87;2.77;;;;;;;1.03;84.32;97435.59;4974279;28;20188;-80
2021/04/08 05:02:25;;;;;;;4.67;2.90;;;;;;;1.04;84.22;97432.88;4974080;28;20189;-66
2021/04/08 05:04:50;;;;;;;4.23;2.90;;;;;;;1.15;83.65;97437.00;4956320;28;20184;-79
2021/04/08 05:07:16;;;;;;;2.83;2.60;;;;;;;1.20;83.12;97434.75;4956958;28;20529;-80
2021/04/08 05:09:41;;;;;;;4.70;2.80;;;;;;;1.24;82.62;97441.22;4972930;28;20263;-80
2021/04/08 05:12:07;;;;;;;3.23;2.77;;;;;;;1.32;82.06;97441.28;4973726;28;20184;-80
2021/04/08 05:14:33;;;;;;;5.33;2.67;;;;;;;1.26;81.79;97444.47;4973466;28;20263;-78
2021/04/08 05:16:59;;;;;;;5.27;3.20;;;;;;;1.41;81.34;97440.38;4974111;28;20232;-77
2021/04/08 05:19:25;;;;;;;3.33;2.80;;;;;;;1.34;81.20;97447.09;4973348;28;20646;-66
2021/04/08 05:21:50;;;;;;;3.80;3.10;;;;;;;1.54;79.86;97438.19;4972276;28;20191;-73
2021/04/08 05:24:16;;;;;;;3.97;3.17;;;;;;;1.12;80.85;97438.09;4972054;28;20640;-68
2021/04/08 05:26:42;;;;;;;3.50;3.13;;;;;;;1.45;80.92;97446.84;4954567;28;20217;-68
2021/04/08 05:29:07;;;;;;;3.83;3.00;;;;;;;1.51;77.83;97448.00;4972552;28;20665;-72
2021/04/08 05:31:33;;;;;;;3.23;2.93;;;;;;;1.58;77.63;97454.19;4954397;28;20188;-72
2021/04/08 05:33:58;;;;;;;5.07;3.33;;;;;;;1.61;76.98;97459.88;4954739;28;20200;-71
2021/04/08 05:36:24;;;;;;;4.43;3.77;;;;;;;1.64;76.37;97462.13;4954986;28;20204;-71
2021/04/08 05:38:49;;;;;;;3.53;3.23;;;;;;;1.59;76.04;97468.72;4954126;28;20272;-71
2021/04/08 05:41:15;;;;;;;4.43;3.37;;;;;;;1.51;77.22;97466.88;4954884;28;20216;-72
2021/04/08 05:43:40;;;;;;;5.37;3.13;;;;;;;1.55;76.94;97478.56;4970883;28;20641;-72
2021/04/08 05:46:09;;;;;;;5.87;3.67;;;;;;;1.70;75.37;97472.81;4954730;28;20196;-72
2021/04/08 05:48:34;;;;;;;6.73;3.80;;;;;;;1.77;75.36;97472.06;4971172;28;20227;-73
2021/04/08 05:51:00;;;;;;;4.10;3.70;;;;;;;1.80;74.36;97474.31;4971384;28;20752;-72
2021/04/08 05:53:25;;;;;;;4.20;3.60;;;;;;;1.71;76.10;97472.66;4971864;28;20315;-65
2021/04/08 05:55:51;;;;;;;5.13;3.73;;;;;;;1.84;74.88;97475.63;4953992;28;20648;-72
2021/04/08 05:58:16;;;;;;;6.10;3.30;;;;;;;1.89;75.42;97480.34;4954983;28;20540;-72
2021/04/08 06:00:41;;;;;;;6.77;3.37;;;;;;;1.92;75.91;97480.03;4971127;28;20264;-71
2021/04/08 06:03:07;;;;;;;6.00;3.57;;;;;;;2.05;74.03;97481.22;4970854;28;20192;-70
2021/04/08 06:05:34;;;;;;;5.27;3.27;;;;;;;2.18;74.38;97480.75;4971237;28;20185;-72
2021/04/08 06:08:00;;;;;;;4.67;3.30;;;;;;;2.25;73.32;97479.16;4954393;28;20196;-73
2021/04/08 06:10:25;;;;;;;5.07;2.70;;;;;;;2.32;72.53;97493.09;4954493;28;20634;-64
2021/04/08 06:12:51;;;;;;;4.33;2.70;;;;;;;2.36;72.62;97491.00;4954150;28;20600;-72
2021/04/08 06:15:17;;;;;;;3.70;2.73;;;;;;;2.36;72.23;97491.81;4971840;28;20654;-71
2021/04/08 06:17:42;;;;;;;3.40;2.83;;;;;;;2.51;71.04;97484.22;4953561;28;20192;-71
2021/04/08 06:20:08;;;;;;;8.37;3.77;;;;;;;2.55;70.52;97489.91;4953648;28;20189;-71
2021/04/08 06:22:34;;;;;;;4.03;2.90;;;;;;;2.42;70.91;97492.97;4971222;28;20195;-69
2021/04/08 06:24:59;;;;;;;4.00;3.10;;;;;;;2.65;71.58;97503.53;4971330;28;20185;-68
2021/04/08 06:27:25;;;;;;;4.60;3.03;;;;;;;2.71;70.61;97495.13;4969846;28;20181;-66
2021/04/08 06:29:50;;;;;;;3.27;2.70;;;;;;;2.74;70.01;97497.38;4972847;28;20201;-72
2021/04/08 06:32:16;;;;;;;4.80;2.77;;;;;;;2.80;68.61;97507.91;4973971;28;20196;-71
2021/04/08 06:34:41;;;;;;;3.33;2.50;;;;;;;2.93;69.33;97499.69;4972665;28;20204;-71
2021/04/08 06:37:07;;;;;;;4.33;3.27;;;;;;;3.07;67.81;97501.59;4975139;28;20215;-72
2021/04/08 06:39:35;;;;;;;3.23;2.93;;;;;;;3.08;67.56;97511.00;4973482;28;20258;-71
2021/04/08 06:42:00;;;;;;;6.43;3.10;;;;;;;3.05;68.97;97511.34;4956853;28;20192;-72
2021/04/08 06:44:27;;;;;;;8.23;3.00;;;;;;;3.15;68.09;97514.56;4941004;28;20185;-73
2021/04/08 06:46:58;;;;;;;5.57;3.37;;;;;;;3.39;66.98;97500.00;4974325;28;20191;-72
2021/04/08 06:49:33;;;;;;;7.03;3.47;;;;;;;3.51;67.21;97506.47;4974948;28;20185;-71
2021/04/08 06:51:59;;;;;;;4.63;3.33;;;;;;;3.74;65.85;97508.19;4975412;28;20228;-72
2021/04/08 06:54:27;;;;;;;4.27;3.00;;;;;;;3.56;66.80;97505.00;4974584;28;20236;-74
2021/04/08 06:56:53;;;;;;;6.00;3.80;;;;;;;3.53;64.44;97507.91;4974865;28;20652;-72
2021/04/08 06:59:19;;;;;;;6.57;3.73;;;;;;;3.50;65.63;97520.38;4974751;28;20181;-73
2021/04/08 07:01:46;;;;;;;9.00;3.70;;;;;;;3.53;65.95;97513.09;4974091;28;20263;-73
2021/04/08 07:04:13;;;;;;;4.97;3.73;;;;;;;3.58;66.16;97507.41;4975168;28;20192;-73
2021/04/08 07:06:38;;;;;;;4.83;3.90;;;;;;;3.60;64.71;97508.88;4974148;28;20181;-72
2021/04/08 07:09:07;;;;;;;7.17;3.90;;;;;;;3.88;64.96;97511.06;4974666;28;20204;-72
2021/04/08 07:11:34;;;;;;;5.73;4.47;;;;;;;4.06;63.33;97516.84;4974266;28;20645;-73
2021/04/08 07:14:01;;;;;;;7.77;4.70;;;;;;;4.17;62.50;97519.09;4973905;28;20200;-72
2021/04/08 07:16:29;;;;;;;6.83;4.60;;;;;;;4.43;62.49;97517.03;4974650;28;20708;-73
2021/04/08 07:18:55;;;;;;;5.83;4.43;;;;;;;4.49;59.82;97521.53;4974791;28;20204;-72
2021/04/08 07:21:22;;;;;;;5.00;4.50;;;;;;;4.21;59.23;97529.91;4974251;28;20237;-73
2021/04/08 07:24:13;;;;;;;5.67;4.50;;;;;;;4.22;59.16;97534.13;4973689;28;20231;-72
2021/04/08 07:26:56;;;;;;;8.30;4.67;;;;;;;4.00;59.77;97533.91;4974189;28;20545;-72
2021/04/08 07:29:43;;;;;;;7.03;4.57;;;;;;;3.96;61.32;97535.19;4973679;28;20188;-72
2021/04/08 07:32:13;;;;;;;6.67;4.30;;;;;;;4.15;59.88;97536.59;4956505;28;20177;-72
2021/04/08 07:34:51;;;;;;;5.90;4.13;;;;;;;4.33;60.81;97533.78;4973609;28;20283;-72
2021/04/08 07:37:34;;;;;;;6.67;4.47;;;;;;;4.49;60.07;97538.88;4974988;28;20275;-73
2021/04/08 07:40:22;;;;;;;7.10;4.13;;;;;;;4.72;59.17;97547.53;4970380;28;20200;-71
2021/04/08 07:42:47;;;;;;;5.37;4.50;;;;;;;4.85;59.26;97544.34;4963257;28;20177;-67
2021/04/08 07:45:35;;;;;;;4.70;3.63;;;;;;;5.09;58.74;97551.19;4956337;28;21648;-73
2021/04/08 07:48:03;;;;;;;5.90;3.83;;;;;;;5.43;58.95;97546.38;4974186;28;20177;-71
2021/04/08 07:50:30;;;;;;;15.63;7.57;;;;;;;5.38;57.84;97551.31;4973080;28;20236;-65
2021/04/08 07:52:57;;;;;;;11.63;5.87;;;;;;;4.77;58.15;97550.44;4973953;28;20192;-72
2021/04/08 07:55:35;;;;;;;7.37;4.37;;;;;;;4.82;58.44;97549.91;4973836;28;20611;-72
2021/04/08 07:58:04;;;;;;;5.37;4.17;;;;;;;5.05;58.55;97555.94;4956390;28;20185;-72
2021/04/08 08:00:40;;;;;;;5.50;4.10;;;;;;;5.14;57.75;97559.28;4972794;28;20176;-66
2021/04/08 08:03:08;;;;;;;4.87;3.97;;;;;;;5.13;57.13;97555.88;4972450;28;20199;-72
2021/04/08 08:05:42;;;;;;;7.40;3.97;;;;;;;5.37;57.19;97560.88;4971916;28;20184;-72
2021/04/08 08:08:15;;;;;;;5.77;3.83;;;;;;;5.65;56.55;97560.34;4972686;28;20184;-71
2021/04/08 08:11:02;;;;;;;7.03;3.53;;;;;;;5.78;55.14;97560.53;4954186;28;20192;-73
2021/04/08 08:13:55;;;;;;;3.77;3.40;;;;;;;6.09;54.91;97568.22;4972428;28;20307;-73
2021/04/08 08:16:25;;;;;;;5.37;3.67;;;;;;;6.22;53.83;97558.00;4968913;28;20559;-73
2021/04/08 08:18:51;;;;;;;3.87;3.50;;;;;;;6.11;52.65;97561.06;4955357;28;20199;-73
2021/04/08 08:21:24;;;;;;;5.63;3.67;;;;;;;6.31;52.34;97556.91;4956265;28;20193;-70
2021/04/08 08:23:52;;;;;;;7.87;4.03;;;;;;;6.39;52.79;97562.03;4972818;28;20189;-73
2021/04/08 08:26:34;;;;;;;5.23;3.50;;;;;;;5.99;52.43;97563.28;4955871;28;20196;-73
2021/04/08 08:29:04;;;;;;;5.10;3.73;;;;;;;6.45;52.85;97557.91;4973458;28;20181;-74
2021/04/08 08:31:47;;;;;;;9.13;3.53;;;;;;;6.63;53.16;97553.91;4972841;28;20196;-65
2021/04/08 08:34:14;;;;;;;4.70;2.90;;;;;;;6.53;53.33;97560.41;4972784;28;20223;-73
2021/04/08 08:36:42;;;;;;;5.57;3.37;;;;;;;6.92;50.81;97552.22;4971912;28;20185;-73
2021/04/08 08:39:11;;;;;;;5.90;3.60;;;;;;;7.01;51.37;97548.53;4955744;28;20184;-74
2021/04/08 08:41:38;;;;;;;7.87;3.60;;;;;;;6.97;49.56;97553.28;4971622;28;20184;-73
2021/04/08 08:44:07;;;;;;;4.77;3.27;;;;;;;6.97;48.81;97563.72;4955778;28;20211;-73
2021/04/08 08:46:38;;;;;;;5.83;3.40;;;;;;;6.90;49.36;97557.66;4954534;28;20188;-65
2021/04/08 08:49:04;;;;;;;4.17;3.43;;;;;;;6.90;48.71;97562.84;4972530;28;20197;-73
2021/04/08 08:51:30;;;;;;;3.40;3.10;;;;;;;7.05;49.72;97570.63;4954168;28;20595;-67
2021/04/08 08:53:56;;;;;;;3.50;3.20;;;;;;;7.09;48.50;97567.44;4971862;28;20243;-74
2021/04/08 08:56:25;;;;;;;5.63;3.20;;;;;;;6.99;48.55;97563.53;4972468;28;20196;-73
2021/04/08 08:58:52;;;;;;;5.53;3.10;;;;;;;7.29;47.63;97566.84;4954370;28;20836;-70
2021/04/08 09:01:20;;;;;;;6.83;3.53;;;;;;;7.15;48.33;97558.09;4972400;28;20221;-70
2021/04/08 09:03:45;;;;;;;5.57;4.27;;;;;;;7.43;48.41;97571.19;4971286;28;20511;-72
2021/04/08 09:06:12;;;;;;;5.70;3.23;;;;;;;7.58;47.91;97565.91;4971980;28;20191;-71
2021/04/08 09:08:40;;;;;;;4.60;3.60;;;;;;;7.52;48.02;97555.22;4954477;28;20204;-71
2021/04/08 09:11:05;;;;;;;8.50;4.23;;;;;;;7.29;47.85;97559.03;4972886;28;20201;-71
2021/04/08 09:13:31;;;;;;;5.00;4.00;;;;;;;6.93;46.78;97553.84;4971871;28;20270;-65
2021/04/08 09:16:00;;;;;;;6.03;3.20;;;;;;;6.91;46.37;97556.63;4971836;28;20204;-71
2021/04/08 09:18:25;;;;;;;6.83;3.20;;;;;;;6.65;46.75;97554.53;4971822;28;20661;-71
2021/04/08 09:20:53;;;;;;;7.07;3.50;;;;;;;6.64;47.08;97547.72;4971546;28;20240;-73
2021/04/08 09:23:22;;;;;;;4.57;3.27;;;;;;;6.89;46.03;97548.22;4939040;28;20193;-71
2021/04/08 09:25:56;;;;;;;7.47;3.53;;;;;;;7.41;45.63;97555.72;4971597;28;20518;-72
2021/04/08 09:28:25;;;;;;;4.57;3.23;;;;;;;7.46;43.25;97556.00;4972086;28;20298;-72
2021/04/08 09:31:09;;;;;;;6.87;3.20;;;;;;;7.32;44.08;97558.66;4970744;28;20847;-72
2021/04/08 09:33:43;;;;;;;4.93;3.27;;;;;;;6.83;44.84;97553.34;4967762;28;20192;-64
2021/04/08 09:36:17;;;;;;;4.13;3.27;;;;;;;6.62;46.37;97557.53;4971851;28;20190;-71
2021/04/08 09:38:43;;;;;;;4.13;3.07;;;;;;;6.52;45.71;97564.00;4971172;28;20183;-71
2021/04/08 09:41:08;;;;;;;5.07;3.50;;;;;;;6.18;45.97;97562.78;4971187;28;20243;-71
2021/04/08 09:43:35;;;;;;;3.77;2.70;;;;;;;6.10;45.93;97560.25;4954237;28;20242;-64
2021/04/08 09:46:04;;;;;;;5.87;3.20;;;;;;;6.38;46.19;97555.22;4953880;28;20192;-70
2021/04/08 09:48:43;;;;;;;5.00;3.00;;;;;;;6.43;46.44;97550.25;4961690;28;20191;-71
2021/04/08 09:51:09;;;;;;;3.30;2.93;;;;;;;6.50;46.02;97553.78;4971570;28;20347;-72
2021/04/08 09:53:37;;;;;;;3.43;3.00;;;;;;;6.71;45.57;97547.78;4972160;28;20343;-64
2021/04/08 09:56:05;;;;;;;3.73;2.73;;;;;;;6.76;45.42;97540.25;4972291;28;20530;-70
2021/04/08 09:58:37;;;;;;;7.03;3.13;;;;;;;6.78;45.76;97548.69;4954753;28;20200;-72
2021/04/08 10:01:09;;;;;;;7.30;3.33;;;;;;;7.04;46.43;97546.34;4972292;28;20172;-72
2021/04/08 10:03:37;;;;;;;5.73;3.13;;;;;;;6.89;45.66;97547.41;4971512;28;20183;-64
2021/04/08 10:06:15;;;;;;;4.27;3.23;;;;;;;7.04;45.69;97543.75;4958801;28;20267;-71
2021/04/08 10:08:41;;;;;;;4.77;3.70;;;;;;;7.26;44.65;97541.13;4975266;28;20181;-71
2021/04/08 10:11:07;;;;;;;4.83;3.00;;;;;;;7.46;45.37;97542.94;4958418;28;20783;-72
2021/04/08 10:13:35;;;;;;;5.57;2.87;;;;;;;7.44;44.58;97542.31;4975717;28;20571;-65
2021/04/08 10:16:09;;;;;;;4.03;3.00;;;;;;;7.14;44.83;97543.44;4975711;28;20185;-70
2021/04/08 10:18:35;;;;;;;4.20;3.20;;;;;;;7.47;44.17;97551.56;4975412;28;20219;-64
2021/04/08 10:21:05;;;;;;;10.37;5.50;;;;;;;7.28;44.60;97545.19;4958128;28;20188;-71
2021/04/08 10:23:36;;;;;;;3.30;3.00;;;;;;;7.60;44.40;97548.25;4958231;28;20625;-70
2021/04/08 10:26:11;;;;;;;5.17;3.30;;;;;;;7.77;44.46;97546.97;4958455;28;20179;-71
2021/04/08 10:28:37;;;;;;;4.00;3.20;;;;;;;7.83;43.82;97544.44;4973306;28;20180;-64
2021/04/08 10:31:24;;;;;;;4.53;3.50;;;;;;;7.53;45.20;97543.78;4974997;28;20259;-71
2021/04/08 10:33:51;;;;;;;3.93;3.20;;;;;;;7.75;45.05;97552.38;4956838;28;20258;-71
2021/04/08 10:36:33;;;;;;;4.83;3.20;;;;;;;8.20;44.12;97545.84;4958099;28;20271;-73
2021/04/08 10:39:17;;;;;;;4.33;3.40;;;;;;;8.23;43.76;97542.88;4974841;28;20181;-72
2021/04/08 10:41:56;;;;;;;4.87;3.07;;;;;;;8.26;42.89;97546.88;4956457;28;20287;-71
2021/04/08 10:44:39;;;;;;;3.80;3.40;;;;;;;8.64;42.69;97526.38;4975470;28;20200;-72
2021/04/08 10:47:09;;;;;;;9.20;3.43;;;;;;;8.79;42.27;97529.66;4975091;28;20189;-73
2021/04/08 10:49:42;;;;;;;7.93;3.80;;;;;;;8.80;42.17;97533.09;4973938;28;20328;-70
2021/04/08 10:52:10;;;;;;;5.07;3.63;;;;;;;8.97;41.55;97529.91;4973646;28;20260;-72
2021/04/08 10:54:37;;;;;;;4.80;3.67;;;;;;;9.19;41.19;97520.88;4956582;28;20197;-75
2021/04/08 10:57:04;;;;;;;5.40;3.57;;;;;;;8.83;41.51;97520.44;4975467;28;20248;-74
2021/04/08 10:59:30;;;;;;;4.77;3.97;;;;;;;8.54;41.00;97518.09;4975253;28;20185;-72
2021/04/08 11:01:58;;;;;;;5.27;3.70;;;;;;;8.34;41.35;97524.06;4974819;28;20194;-74
2021/04/08 11:04:23;;;;;;;4.07;3.20;;;;;;;8.38;40.63;97523.66;4975117;28;20189;-74
2021/04/08 11:06:50;;;;;;;3.80;3.50;;;;;;;8.39;40.51;97528.72;4957404;28;20185;-74
2021/04/08 11:09:24;;;;;;;4.27;3.87;;;;;;;8.56;40.10;97524.75;4957520;28;20204;-74
2021/04/08 11:11:51;;;;;;;6.87;3.77;;;;;;;8.60;40.66;97515.53;4973106;28;20679;-74
2021/04/08 11:14:24;;;;;;;6.20;4.20;;;;;;;8.36;41.12;97523.84;4974248;28;20193;-75
2021/04/08 11:16:53;;;;;;;5.80;4.20;;;;;;;7.77;42.34;97524.31;4972763;28;20630;-72
2021/04/08 11:19:19;;;;;;;7.10;4.53;;;;;;;7.82;42.70;97534.16;4973472;28;20189;-75
2021/04/08 11:21:45;;;;;;;8.83;4.00;;;;;;;8.37;42.35;97517.63;4956936;28;20199;-74
2021/04/08 11:24:11;;;;;;;6.33;4.77;;;;;;;8.22;42.51;97522.97;4974808;28;20184;-72
2021/04/08 11:26:53;;;;;;;5.80;5.20;;;;;;;7.47;43.60;97528.06;4956578;28;20275;-73
2021/04/08 11:29:23;;;;;;;6.13;4.83;;;;;;;8.14;43.42;97520.50;4974678;28;20232;-73
2021/04/08 11:32:06;;;;;;;5.10;4.60;;;;;;;7.50;42.40;97522.50;4956682;28;20213;-73
2021/04/08 11:34:43;;;;;;;7.23;5.07;;;;;;;7.09;44.32;97514.50;4973989;28;20688;-75
2021/04/08 11:37:09;;;;;;;6.57;4.27;;;;;;;7.60;43.93;97519.56;4974078;28;20210;-75
2021/04/08 11:39:36;;;;;;;8.07;4.10;;;;;;;8.08;41.24;97516.06;4957307;28;20185;-62
2021/04/08 11:42:21;;;;;;;8.43;4.60;;;;;;;8.35;40.86;97514.44;4974222;28;20199;-73
2021/04/08 11:44:48;;;;;;;4.70;4.13;;;;;;;7.64;42.01;97518.19;4973010;28;20642;-74
2021/04/08 11:47:14;;;;;;;5.30;4.27;;;;;;;7.60;41.69;97512.53;4974126;28;20219;-73
2021/04/08 11:49:44;;;;;;;4.87;4.03;;;;;;;7.93;41.54;97510.16;4955863;28;20311;-75